sensor_id;sensor_type;location;lat;lon;timestamp;temperature;humidity
20831;DHT22;10576;53.556;9.868;2022-12-24T00:07:14;6.00;99.90
20831;DHT22;10576;53.556;9.868;2022-12-24T00:16:57;5.80;99.90
20831;DHT22;10576;53.556;9.868;2022-12-24T00:26:41;6.00;99.90
20831;DHT22;10576;53.556;9.868;2022-12-24T00:29:08;6.00;99.90
20831;DHT22;10576;53.556;9.868;2022-12-24T00:36:25;5.80;99.90
20831;DHT22;10576;53.556;9.868;2022-12-24T00:41:17;5.80;99.90
20831;DHT22;10576;53.556;9.868;2022-12-24T00:46:17;6.00;99.90
20831;DHT22;10576;53.556;9.868;2022-12-24T00:58:26;6.00;99.90
20831;DHT22;10576;53.556;9.868;2022-12-24T01:08:10;6.00;99.90
20831;DHT22;10576;53.556;9.868;2022-12-24T01:13:02;5.80;99.90
20831;DHT22;10576;53.556;9.868;2022-12-24T01:17:54;5.90;99.90
20831;DHT22;10576;53.556;9.868;2022-12-24T01:22:46;5.80;99.90
20831;DHT22;10576;53.556;9.868;2022-12-24T01:25:13;5.80;99.90
20831;DHT22;10576;53.556;9.868;2022-12-24T01:27:39;5.80;99.90
20831;DHT22;10576;53.556;9.868;2022-12-24T01:30:07;5.70;99.90
20831;DHT22;10576;53.556;9.868;2022-12-24T01:32:33;6.00;99.90
20831;DHT22;10576;53.556;9.868;2022-12-24T01:37:25;5.70;99.90
20831;DHT22;10576;53.556;9.868;2022-12-24T01:42:38;5.80;99.90
20831;DHT22;10576;53.556;9.868;2022-12-24T01:53:48;5.70;99.90
20831;DHT22;10576;53.556;9.868;2022-12-24T01:56:15;5.80;99.90
20831;DHT22;10576;53.556;9.868;2022-12-24T01:58:44;5.80;99.90
20831;DHT22;10576;53.556;9.868;2022-12-24T02:08:29;5.80;99.90
20831;DHT22;10576;53.556;9.868;2022-12-24T02:11:11;5.80;99.90
20831;DHT22;10576;53.556;9.868;2022-12-24T02:16:16;5.80;99.90
20831;DHT22;10576;53.556;9.868;2022-12-24T02:31:51;5.80;99.90
20831;DHT22;10576;53.556;9.868;2022-12-24T02:34:27;5.70;99.90
20831;DHT22;10576;53.556;9.868;2022-12-24T02:36:57;5.70;99.90
20831;DHT22;10576;53.556;9.868;2022-12-24T02:39:47;5.70;99.90
20831;DHT22;10576;53.556;9.868;2022-12-24T02:42:19;5.90;99.90
20831;DHT22;10576;53.556;9.868;2022-12-24T02:44:52;6.00;99.90
20831;DHT22;10576;53.556;9.868;2022-12-24T02:47:22;5.90;99.90
20831;DHT22;10576;53.556;9.868;2022-12-24T03:00:09;6.00;99.90
20831;DHT22;10576;53.556;9.868;2022-12-24T03:11:13;5.90;99.90
20831;DHT22;10576;53.556;9.868;2022-12-24T03:13:43;6.00;99.90
20831;DHT22;10576;53.556;9.868;2022-12-24T03:16:18;6.00;99.90
20831;DHT22;10576;53.556;9.868;2022-12-24T03:18:47;5.70;99.90
20831;DHT22;10576;53.556;9.868;2022-12-24T03:24:00;5.80;99.90
20831;DHT22;10576;53.556;9.868;2022-12-24T03:26:28;6.10;99.90
20831;DHT22;10576;53.556;9.868;2022-12-24T03:28:55;5.90;99.90
20831;DHT22;10576;53.556;9.868;2022-12-24T03:38:39;6.00;99.90
20831;DHT22;10576;53.556;9.868;2022-12-24T03:43:31;6.00;99.90
20831;DHT22;10576;53.556;9.868;2022-12-24T03:48:23;5.90;99.90
20831;DHT22;10576;53.556;9.868;2022-12-24T03:53:14;5.90;99.90
20831;DHT22;10576;53.556;9.868;2022-12-24T03:55:40;6.00;99.90
20831;DHT22;10576;53.556;9.868;2022-12-24T03:58:06;5.90;99.90
20831;DHT22;10576;53.556;9.868;2022-12-24T04:07:50;6.20;99.90
20831;DHT22;10576;53.556;9.868;2022-12-24T04:17:34;5.80;99.90
20831;DHT22;10576;53.556;9.868;2022-12-24T04:22:25;5.90;99.90
20831;DHT22;10576;53.556;9.868;2022-12-24T04:27:17;5.90;99.90
20831;DHT22;10576;53.556;9.868;2022-12-24T04:32:09;6.00;99.90
20831;DHT22;10576;53.556;9.868;2022-12-24T04:37:01;5.90;99.90
20831;DHT22;10576;53.556;9.868;2022-12-24T04:46:45;5.90;99.90
20831;DHT22;10576;53.556;9.868;2022-12-24T04:54:06;5.90;99.90
20831;DHT22;10576;53.556;9.868;2022-12-24T04:56:31;5.70;99.90
20831;DHT22;10576;53.556;9.868;2022-12-24T04:58:58;5.90;99.90
20831;DHT22;10576;53.556;9.868;2022-12-24T05:01:26;5.80;99.90
20831;DHT22;10576;53.556;9.868;2022-12-24T05:03:53;5.70;99.90
20831;DHT22;10576;53.556;9.868;2022-12-24T05:06:21;5.70;99.90
20831;DHT22;10576;53.556;9.868;2022-12-24T05:13:44;5.90;99.90
20831;DHT22;10576;53.556;9.868;2022-12-24T05:16:10;5.90;99.90
20831;DHT22;10576;53.556;9.868;2022-12-24T05:18:36;5.70;99.90
20831;DHT22;10576;53.556;9.868;2022-12-24T05:23:28;5.70;99.90
20831;DHT22;10576;53.556;9.868;2022-12-24T05:26:23;5.90;99.90
20831;DHT22;10576;53.556;9.868;2022-12-24T05:28:53;5.80;99.90
20831;DHT22;10576;53.556;9.868;2022-12-24T05:31:21;5.70;99.90
20831;DHT22;10576;53.556;9.868;2022-12-24T05:33:47;5.90;99.90
20831;DHT22;10576;53.556;9.868;2022-12-24T05:36:14;5.80;99.90
20831;DHT22;10576;53.556;9.868;2022-12-24T05:38:39;5.80;99.90
20831;DHT22;10576;53.556;9.868;2022-12-24T05:43:32;5.90;99.90
20831;DHT22;10576;53.556;9.868;2022-12-24T05:46:02;5.90;99.90
20831;DHT22;10576;53.556;9.868;2022-12-24T05:48:28;5.80;99.90
20831;DHT22;10576;53.556;9.868;2022-12-24T05:50:54;6.00;99.90
20831;DHT22;10576;53.556;9.868;2022-12-24T05:53:20;5.90;99.90
20831;DHT22;10576;53.556;9.868;2022-12-24T05:55:46;5.70;99.90
20831;DHT22;10576;53.556;9.868;2022-12-24T05:58:12;5.70;99.90
20831;DHT22;10576;53.556;9.868;2022-12-24T06:00:38;5.80;99.90
20831;DHT22;10576;53.556;9.868;2022-12-24T06:03:04;5.70;99.90
20831;DHT22;10576;53.556;9.868;2022-12-24T06:05:30;5.70;99.90
20831;DHT22;10576;53.556;9.868;2022-12-24T06:10:22;5.80;99.90
20831;DHT22;10576;53.556;9.868;2022-12-24T06:15:14;5.70;99.90
20831;DHT22;10576;53.556;9.868;2022-12-24T06:20:07;5.50;99.90
20831;DHT22;10576;53.556;9.868;2022-12-24T06:22:32;5.80;99.90
20831;DHT22;10576;53.556;9.868;2022-12-24T06:24:58;5.60;99.90
20831;DHT22;10576;53.556;9.868;2022-12-24T06:29:50;5.60;99.90
20831;DHT22;10576;53.556;9.868;2022-12-24T06:34:41;5.60;99.90
20831;DHT22;10576;53.556;9.868;2022-12-24T06:37:07;5.60;99.90
20831;DHT22;10576;53.556;9.868;2022-12-24T06:39:40;5.60;99.90
20831;DHT22;10576;53.556;9.868;2022-12-24T06:46:58;5.60;99.90
20831;DHT22;10576;53.556;9.868;2022-12-24T06:49:23;5.60;99.90
20831;DHT22;10576;53.556;9.868;2022-12-24T06:51:49;5.60;99.90
20831;DHT22;10576;53.556;9.868;2022-12-24T06:56:41;5.60;99.90
20831;DHT22;10576;53.556;9.868;2022-12-24T07:01:32;5.70;99.90
20831;DHT22;10576;53.556;9.868;2022-12-24T07:08:51;5.70;99.90
20831;DHT22;10576;53.556;9.868;2022-12-24T07:11:17;5.60;99.90
20831;DHT22;10576;53.556;9.868;2022-12-24T07:13:43;5.70;99.90
20831;DHT22;10576;53.556;9.868;2022-12-24T07:16:09;5.60;99.90
20831;DHT22;10576;53.556;9.868;2022-12-24T07:21:02;5.60;99.90
20831;DHT22;10576;53.556;9.868;2022-12-24T07:23:29;5.50;99.90
20831;DHT22;10576;53.556;9.868;2022-12-24T07:25:59;5.70;99.90
20831;DHT22;10576;53.556;9.868;2022-12-24T07:30:51;5.60;99.90
20831;DHT22;10576;53.556;9.868;2022-12-24T07:33:17;5.50;99.90
20831;DHT22;10576;53.556;9.868;2022-12-24T07:35:43;5.50;99.90
20831;DHT22;10576;53.556;9.868;2022-12-24T07:40:34;5.60;99.90
20831;DHT22;10576;53.556;9.868;2022-12-24T07:45:26;5.80;99.90
20831;DHT22;10576;53.556;9.868;2022-12-24T07:52:44;5.60;99.90
20831;DHT22;10576;53.556;9.868;2022-12-24T07:55:09;5.60;99.90
20831;DHT22;10576;53.556;9.868;2022-12-24T07:57:35;5.60;99.90
20831;DHT22;10576;53.556;9.868;2022-12-24T08:00:01;5.70;99.90
20831;DHT22;10576;53.556;9.868;2022-12-24T08:02:26;5.50;99.90
20831;DHT22;10576;53.556;9.868;2022-12-24T08:04:52;5.50;99.90
20831;DHT22;10576;53.556;9.868;2022-12-24T08:07:17;5.50;99.90
20831;DHT22;10576;53.556;9.868;2022-12-24T08:12:10;5.60;99.90
20831;DHT22;10576;53.556;9.868;2022-12-24T08:17:02;5.50;99.90
20831;DHT22;10576;53.556;9.868;2022-12-24T08:19:28;5.40;99.90
20831;DHT22;10576;53.556;9.868;2022-12-24T08:21:53;5.60;99.90
20831;DHT22;10576;53.556;9.868;2022-12-24T08:26:45;5.70;99.90
20831;DHT22;10576;53.556;9.868;2022-12-24T08:29:10;5.60;99.90
20831;DHT22;10576;53.556;9.868;2022-12-24T08:34:06;5.60;99.90
20831;DHT22;10576;53.556;9.868;2022-12-24T08:36:33;5.70;99.90
20831;DHT22;10576;53.556;9.868;2022-12-24T08:43:54;5.50;99.90
20831;DHT22;10576;53.556;9.868;2022-12-24T08:46:20;5.70;99.90
20831;DHT22;10576;53.556;9.868;2022-12-24T08:51:12;5.60;99.90
20831;DHT22;10576;53.556;9.868;2022-12-24T08:53:38;5.70;99.90
20831;DHT22;10576;53.556;9.868;2022-12-24T08:56:07;5.60;99.90
20831;DHT22;10576;53.556;9.868;2022-12-24T08:58:33;5.80;99.90
20831;DHT22;10576;53.556;9.868;2022-12-24T09:00:59;5.60;99.90
20831;DHT22;10576;53.556;9.868;2022-12-24T09:05:51;5.60;99.90
20831;DHT22;10576;53.556;9.868;2022-12-24T09:10:46;5.60;99.90
20831;DHT22;10576;53.556;9.868;2022-12-24T09:13:11;5.70;99.90
20831;DHT22;10576;53.556;9.868;2022-12-24T09:15:38;5.60;99.90
20831;DHT22;10576;53.556;9.868;2022-12-24T09:18:03;5.50;99.90
20831;DHT22;10576;53.556;9.868;2022-12-24T09:20:29;5.60;99.90
20831;DHT22;10576;53.556;9.868;2022-12-24T09:22:55;5.70;99.90
20831;DHT22;10576;53.556;9.868;2022-12-24T09:25:20;5.60;99.90
20831;DHT22;10576;53.556;9.868;2022-12-24T09:30:13;5.90;99.90
20831;DHT22;10576;53.556;9.868;2022-12-24T09:32:38;5.60;99.90
20831;DHT22;10576;53.556;9.868;2022-12-24T09:35:04;5.60;99.90
20831;DHT22;10576;53.556;9.868;2022-12-24T09:39:56;5.70;99.90
20831;DHT22;10576;53.556;9.868;2022-12-24T09:47:27;5.80;99.90
20831;DHT22;10576;53.556;9.868;2022-12-24T09:49:56;5.80;99.90
20831;DHT22;10576;53.556;9.868;2022-12-24T09:52:37;5.80;99.90
20831;DHT22;10576;53.556;9.868;2022-12-24T09:57:37;6.00;99.90
20831;DHT22;10576;53.556;9.868;2022-12-24T10:00:15;6.20;99.90
20831;DHT22;10576;53.556;9.868;2022-12-24T10:05:13;6.10;99.90
20831;DHT22;10576;53.556;9.868;2022-12-24T10:07:50;6.00;99.90
20831;DHT22;10576;53.556;9.868;2022-12-24T10:15:39;6.00;99.90
20831;DHT22;10576;53.556;9.868;2022-12-24T10:20:50;5.90;99.90
20831;DHT22;10576;53.556;9.868;2022-12-24T10:31:13;6.20;99.90
20831;DHT22;10576;53.556;9.868;2022-12-24T10:33:49;6.10;99.90
20831;DHT22;10576;53.556;9.868;2022-12-24T10:36:21;6.00;99.90
20831;DHT22;10576;53.556;9.868;2022-12-24T10:41:14;6.10;99.90
20831;DHT22;10576;53.556;9.868;2022-12-24T10:43:41;6.20;99.90
20831;DHT22;10576;53.556;9.868;2022-12-24T10:46:18;6.00;99.90
20831;DHT22;10576;53.556;9.868;2022-12-24T10:48:58;6.20;99.90
20831;DHT22;10576;53.556;9.868;2022-12-24T10:56:44;6.10;99.90
20831;DHT22;10576;53.556;9.868;2022-12-24T11:01:57;6.40;99.90
20831;DHT22;10576;53.556;9.868;2022-12-24T11:04:28;6.10;99.90
20831;DHT22;10576;53.556;9.868;2022-12-24T11:09:33;6.30;99.90
20831;DHT22;10576;53.556;9.868;2022-12-24T11:12:01;6.10;99.90
20831;DHT22;10576;53.556;9.868;2022-12-24T11:14:34;6.40;99.90
20831;DHT22;10576;53.556;9.868;2022-12-24T11:17:01;6.50;99.90
20831;DHT22;10576;53.556;9.868;2022-12-24T11:19:33;6.90;99.90
20831;DHT22;10576;53.556;9.868;2022-12-24T11:22:03;6.50;99.90
20831;DHT22;10576;53.556;9.868;2022-12-24T11:24:34;6.40;99.90
20831;DHT22;10576;53.556;9.868;2022-12-24T11:27:33;6.60;99.90
20831;DHT22;10576;53.556;9.868;2022-12-24T11:35:14;6.70;99.90
20831;DHT22;10576;53.556;9.868;2022-12-24T11:37:40;6.70;99.90
20831;DHT22;10576;53.556;9.868;2022-12-24T11:42:44;6.80;99.90
20831;DHT22;10576;53.556;9.868;2022-12-24T11:45:17;6.90;99.90
20831;DHT22;10576;53.556;9.868;2022-12-24T11:47:44;7.10;99.90
20831;DHT22;10576;53.556;9.868;2022-12-24T11:50:40;7.10;99.90
20831;DHT22;10576;53.556;9.868;2022-12-24T11:55:44;7.00;99.90
20831;DHT22;10576;53.556;9.868;2022-12-24T11:58:32;7.00;99.90
20831;DHT22;10576;53.556;9.868;2022-12-24T12:09:02;7.30;99.90
20831;DHT22;10576;53.556;9.868;2022-12-24T12:11:31;7.30;99.90
20831;DHT22;10576;53.556;9.868;2022-12-24T12:13:59;7.50;99.90
20831;DHT22;10576;53.556;9.868;2022-12-24T12:16:31;7.50;99.90
20831;DHT22;10576;53.556;9.868;2022-12-24T12:21:48;7.50;99.90
20831;DHT22;10576;53.556;9.868;2022-12-24T12:24:19;7.50;99.90
20831;DHT22;10576;53.556;9.868;2022-12-24T12:26:48;7.50;99.90
20831;DHT22;10576;53.556;9.868;2022-12-24T12:29:29;7.60;99.90
20831;DHT22;10576;53.556;9.868;2022-12-24T12:32:01;7.50;99.90
20831;DHT22;10576;53.556;9.868;2022-12-24T12:34:34;7.70;99.90
20831;DHT22;10576;53.556;9.868;2022-12-24T12:37:07;7.80;99.90
20831;DHT22;10576;53.556;9.868;2022-12-24T12:56:34;7.90;99.90
20831;DHT22;10576;53.556;9.868;2022-12-24T13:01:52;7.80;99.90
20831;DHT22;10576;53.556;9.868;2022-12-24T13:08:11;7.90;99.90
20831;DHT22;10576;53.556;9.868;2022-12-24T13:13:42;7.80;99.90
20831;DHT22;10576;53.556;9.868;2022-12-24T13:22:16;7.90;99.90
20831;DHT22;10576;53.556;9.868;2022-12-24T13:24:53;8.00;99.90
20831;DHT22;10576;53.556;9.868;2022-12-24T13:27:28;8.20;99.90
20831;DHT22;10576;53.556;9.868;2022-12-24T13:29:58;8.20;99.90
20831;DHT22;10576;53.556;9.868;2022-12-24T13:37:21;8.10;99.90
20831;DHT22;10576;53.556;9.868;2022-12-24T13:50:49;8.20;99.90
20831;DHT22;10576;53.556;9.868;2022-12-24T13:56:21;8.30;99.90
20831;DHT22;10576;53.556;9.868;2022-12-24T13:58:50;8.30;99.90
20831;DHT22;10576;53.556;9.868;2022-12-24T14:01:43;8.10;99.90
20831;DHT22;10576;53.556;9.868;2022-12-24T14:06:48;8.40;99.90
20831;DHT22;10576;53.556;9.868;2022-12-24T14:09:20;8.50;99.90
20831;DHT22;10576;53.556;9.868;2022-12-24T14:22:37;8.50;99.90
20831;DHT22;10576;53.556;9.868;2022-12-24T14:25:18;8.50;99.90
20831;DHT22;10576;53.556;9.868;2022-12-24T14:28:03;8.50;99.90
20831;DHT22;10576;53.556;9.868;2022-12-24T14:30:30;8.50;99.90
20831;DHT22;10576;53.556;9.868;2022-12-24T14:32:56;8.50;99.90
20831;DHT22;10576;53.556;9.868;2022-12-24T14:35:48;8.30;99.90
20831;DHT22;10576;53.556;9.868;2022-12-24T14:38:15;8.30;99.90
20831;DHT22;10576;53.556;9.868;2022-12-24T14:41:07;8.30;99.90
20831;DHT22;10576;53.556;9.868;2022-12-24T14:54:38;8.30;99.90
20831;DHT22;10576;53.556;9.868;2022-12-24T14:59:43;8.30;99.90
20831;DHT22;10576;53.556;9.868;2022-12-24T15:05:08;8.30;99.90
20831;DHT22;10576;53.556;9.868;2022-12-24T15:07:37;8.30;99.90
20831;DHT22;10576;53.556;9.868;2022-12-24T15:10:04;8.50;99.90
20831;DHT22;10576;53.556;9.868;2022-12-24T15:12:31;8.30;99.90
20831;DHT22;10576;53.556;9.868;2022-12-24T15:14:58;8.30;99.90
20831;DHT22;10576;53.556;9.868;2022-12-24T15:17:25;8.30;99.90
20831;DHT22;10576;53.556;9.868;2022-12-24T15:19:52;8.30;99.90
20831;DHT22;10576;53.556;9.868;2022-12-24T15:22:30;8.10;99.90
20831;DHT22;10576;53.556;9.868;2022-12-24T15:24:56;8.40;99.90
20831;DHT22;10576;53.556;9.868;2022-12-24T15:27:24;8.20;99.90
20831;DHT22;10576;53.556;9.868;2022-12-24T15:29:53;8.10;99.90
20831;DHT22;10576;53.556;9.868;2022-12-24T15:32:20;8.10;99.90
20831;DHT22;10576;53.556;9.868;2022-12-24T15:34:52;8.20;99.90
20831;DHT22;10576;53.556;9.868;2022-12-24T15:37:21;8.00;99.90
20831;DHT22;10576;53.556;9.868;2022-12-24T15:42:43;8.30;99.90
20831;DHT22;10576;53.556;9.868;2022-12-24T15:48:07;8.20;99.90
20831;DHT22;10576;53.556;9.868;2022-12-24T15:50:37;8.10;99.90
20831;DHT22;10576;53.556;9.868;2022-12-24T15:53:13;8.30;99.90
20831;DHT22;10576;53.556;9.868;2022-12-24T15:56:00;8.40;99.90
20831;DHT22;10576;53.556;9.868;2022-12-24T15:58:29;8.20;99.90
20831;DHT22;10576;53.556;9.868;2022-12-24T16:03:34;8.30;99.90
20831;DHT22;10576;53.556;9.868;2022-12-24T16:06:03;8.10;99.90
20831;DHT22;10576;53.556;9.868;2022-12-24T16:08:33;8.20;99.90
20831;DHT22;10576;53.556;9.868;2022-12-24T16:11:10;8.20;99.90
20831;DHT22;10576;53.556;9.868;2022-12-24T16:13:41;8.50;99.90
20831;DHT22;10576;53.556;9.868;2022-12-24T16:18:51;8.30;99.90
20831;DHT22;10576;53.556;9.868;2022-12-24T16:21:28;8.40;99.90
20831;DHT22;10576;53.556;9.868;2022-12-24T16:23:57;8.50;99.90
20831;DHT22;10576;53.556;9.868;2022-12-24T16:26:29;8.50;99.90
20831;DHT22;10576;53.556;9.868;2022-12-24T16:28:54;8.50;99.90
20831;DHT22;10576;53.556;9.868;2022-12-24T16:34:01;8.60;99.90
20831;DHT22;10576;53.556;9.868;2022-12-24T16:36:28;8.60;99.90
20831;DHT22;10576;53.556;9.868;2022-12-24T16:38:58;8.40;99.90
20831;DHT22;10576;53.556;9.868;2022-12-24T16:44:28;8.70;99.90
20831;DHT22;10576;53.556;9.868;2022-12-24T16:46:55;8.60;99.90
20831;DHT22;10576;53.556;9.868;2022-12-24T16:49:21;8.80;99.90
20831;DHT22;10576;53.556;9.868;2022-12-24T16:51:47;8.60;99.90
20831;DHT22;10576;53.556;9.868;2022-12-24T16:54:13;8.50;99.90
20831;DHT22;10576;53.556;9.868;2022-12-24T16:56:41;8.60;99.90
20831;DHT22;10576;53.556;9.868;2022-12-24T16:59:20;8.70;99.90
20831;DHT22;10576;53.556;9.868;2022-12-24T17:01:46;8.80;99.90
20831;DHT22;10576;53.556;9.868;2022-12-24T17:06:39;8.80;99.90
20831;DHT22;10576;53.556;9.868;2022-12-24T17:09:05;8.70;99.90
20831;DHT22;10576;53.556;9.868;2022-12-24T17:11:30;8.60;99.90
20831;DHT22;10576;53.556;9.868;2022-12-24T17:13:56;8.70;99.90
20831;DHT22;10576;53.556;9.868;2022-12-24T17:16:22;8.60;99.90
20831;DHT22;10576;53.556;9.868;2022-12-24T17:18:48;8.50;99.90
20831;DHT22;10576;53.556;9.868;2022-12-24T17:21:16;8.80;99.90
20831;DHT22;10576;53.556;9.868;2022-12-24T17:23:42;8.70;99.90
20831;DHT22;10576;53.556;9.868;2022-12-24T17:26:13;8.60;99.90
20831;DHT22;10576;53.556;9.868;2022-12-24T17:28:39;8.50;99.90
20831;DHT22;10576;53.556;9.868;2022-12-24T17:31:06;8.80;99.90
20831;DHT22;10576;53.556;9.868;2022-12-24T17:33:32;8.70;99.90
20831;DHT22;10576;53.556;9.868;2022-12-24T17:35:58;8.50;99.90
20831;DHT22;10576;53.556;9.868;2022-12-24T17:38:23;8.40;99.90
20831;DHT22;10576;53.556;9.868;2022-12-24T17:40:49;8.50;99.90
20831;DHT22;10576;53.556;9.868;2022-12-24T17:43:15;8.60;99.90
20831;DHT22;10576;53.556;9.868;2022-12-24T17:45:40;8.60;99.90
20831;DHT22;10576;53.556;9.868;2022-12-24T17:48:09;8.60;99.90
20831;DHT22;10576;53.556;9.868;2022-12-24T17:50:40;8.70;99.90
20831;DHT22;10576;53.556;9.868;2022-12-24T17:53:06;8.80;99.90
20831;DHT22;10576;53.556;9.868;2022-12-24T17:55:32;8.50;99.90
20831;DHT22;10576;53.556;9.868;2022-12-24T17:57:57;8.50;99.90
20831;DHT22;10576;53.556;9.868;2022-12-24T18:00:23;8.60;99.90
20831;DHT22;10576;53.556;9.868;2022-12-24T18:02:49;8.60;99.90
20831;DHT22;10576;53.556;9.868;2022-12-24T18:05:15;8.70;99.90
20831;DHT22;10576;53.556;9.868;2022-12-24T18:07:40;8.50;99.90
20831;DHT22;10576;53.556;9.868;2022-12-24T18:10:06;8.60;99.90
20831;DHT22;10576;53.556;9.868;2022-12-24T18:12:32;8.70;99.90
20831;DHT22;10576;53.556;9.868;2022-12-24T18:14:58;8.50;99.90
20831;DHT22;10576;53.556;9.868;2022-12-24T18:17:24;8.60;99.90
20831;DHT22;10576;53.556;9.868;2022-12-24T18:19:50;8.70;99.90
20831;DHT22;10576;53.556;9.868;2022-12-24T18:22:15;8.70;99.90
20831;DHT22;10576;53.556;9.868;2022-12-24T18:24:41;8.70;99.90
20831;DHT22;10576;53.556;9.868;2022-12-24T18:27:07;8.60;99.90
20831;DHT22;10576;53.556;9.868;2022-12-24T18:29:32;8.60;99.90
20831;DHT22;10576;53.556;9.868;2022-12-24T18:31:58;8.50;99.90
20831;DHT22;10576;53.556;9.868;2022-12-24T18:34:23;8.60;99.90
20831;DHT22;10576;53.556;9.868;2022-12-24T18:36:49;8.60;99.90
20831;DHT22;10576;53.556;9.868;2022-12-24T18:39:15;8.60;99.90
20831;DHT22;10576;53.556;9.868;2022-12-24T18:41:40;8.60;99.90
20831;DHT22;10576;53.556;9.868;2022-12-24T18:44:07;8.50;99.90
20831;DHT22;10576;53.556;9.868;2022-12-24T18:46:33;8.60;99.90
20831;DHT22;10576;53.556;9.868;2022-12-24T18:49:00;8.30;99.90
20831;DHT22;10576;53.556;9.868;2022-12-24T18:51:29;8.30;99.90
20831;DHT22;10576;53.556;9.868;2022-12-24T18:53:55;8.50;99.90
20831;DHT22;10576;53.556;9.868;2022-12-24T18:56:23;8.40;99.90
20831;DHT22;10576;53.556;9.868;2022-12-24T18:58:52;8.30;99.90
20831;DHT22;10576;53.556;9.868;2022-12-24T19:01:21;8.50;99.90
20831;DHT22;10576;53.556;9.868;2022-12-24T19:03:48;8.40;99.90
20831;DHT22;10576;53.556;9.868;2022-12-24T19:06:15;8.40;99.90
20831;DHT22;10576;53.556;9.868;2022-12-24T19:08:41;8.30;99.90
20831;DHT22;10576;53.556;9.868;2022-12-24T19:11:06;8.40;99.90
20831;DHT22;10576;53.556;9.868;2022-12-24T19:13:32;8.40;99.90
20831;DHT22;10576;53.556;9.868;2022-12-24T19:15:59;8.40;99.90
20831;DHT22;10576;53.556;9.868;2022-12-24T19:18:24;8.30;99.90
20831;DHT22;10576;53.556;9.868;2022-12-24T19:20:50;8.10;99.90
20831;DHT22;10576;53.556;9.868;2022-12-24T19:23:16;8.20;99.90
20831;DHT22;10576;53.556;9.868;2022-12-24T19:25:41;8.10;99.90
20831;DHT22;10576;53.556;9.868;2022-12-24T19:28:07;7.90;99.90
20831;DHT22;10576;53.556;9.868;2022-12-24T19:30:38;7.90;99.90
20831;DHT22;10576;53.556;9.868;2022-12-24T19:33:04;7.90;99.90
20831;DHT22;10576;53.556;9.868;2022-12-24T19:35:31;7.90;99.90
20831;DHT22;10576;53.556;9.868;2022-12-24T19:37:57;8.10;99.90
20831;DHT22;10576;53.556;9.868;2022-12-24T19:40:22;8.20;99.90
20831;DHT22;10576;53.556;9.868;2022-12-24T19:42:48;8.10;99.90
20831;DHT22;10576;53.556;9.868;2022-12-24T19:45:17;8.10;99.90
20831;DHT22;10576;53.556;9.868;2022-12-24T19:47:42;8.10;99.90
20831;DHT22;10576;53.556;9.868;2022-12-24T19:50:08;8.00;99.90
20831;DHT22;10576;53.556;9.868;2022-12-24T19:52:34;8.10;99.90
20831;DHT22;10576;53.556;9.868;2022-12-24T19:54:59;8.00;99.90
20831;DHT22;10576;53.556;9.868;2022-12-24T19:57:25;9.60;99.90
20831;DHT22;10576;53.556;9.868;2022-12-24T19:59:51;8.10;99.90
20831;DHT22;10576;53.556;9.868;2022-12-24T20:02:17;8.00;99.90
20831;DHT22;10576;53.556;9.868;2022-12-24T20:04:43;8.10;99.90
20831;DHT22;10576;53.556;9.868;2022-12-24T20:07:08;8.10;99.90
20831;DHT22;10576;53.556;9.868;2022-12-24T20:09:34;8.20;99.90
20831;DHT22;10576;53.556;9.868;2022-12-24T20:12:01;8.20;99.90
20831;DHT22;10576;53.556;9.868;2022-12-24T20:14:27;8.10;99.90
20831;DHT22;10576;53.556;9.868;2022-12-24T20:16:53;8.00;99.90
20831;DHT22;10576;53.556;9.868;2022-12-24T20:19:19;7.90;99.90
20831;DHT22;10576;53.556;9.868;2022-12-24T20:21:45;8.00;99.90
20831;DHT22;10576;53.556;9.868;2022-12-24T20:24:11;7.80;99.90
20831;DHT22;10576;53.556;9.868;2022-12-24T20:26:37;7.90;99.90
20831;DHT22;10576;53.556;9.868;2022-12-24T20:29:07;7.80;99.90
20831;DHT22;10576;53.556;9.868;2022-12-24T20:31:33;7.90;99.90
20831;DHT22;10576;53.556;9.868;2022-12-24T20:34:00;7.90;99.90
20831;DHT22;10576;53.556;9.868;2022-12-24T20:36:27;7.90;99.90
20831;DHT22;10576;53.556;9.868;2022-12-24T20:38:54;7.70;99.90
20831;DHT22;10576;53.556;9.868;2022-12-24T20:41:21;7.90;99.90
20831;DHT22;10576;53.556;9.868;2022-12-24T20:43:47;7.80;99.90
20831;DHT22;10576;53.556;9.868;2022-12-24T20:48:39;7.80;99.90
20831;DHT22;10576;53.556;9.868;2022-12-24T20:51:08;7.80;99.90
20831;DHT22;10576;53.556;9.868;2022-12-24T20:53:34;7.60;99.90
20831;DHT22;10576;53.556;9.868;2022-12-24T20:56:00;7.80;99.90
20831;DHT22;10576;53.556;9.868;2022-12-24T20:58:26;7.70;99.90
20831;DHT22;10576;53.556;9.868;2022-12-24T21:00:52;7.70;99.90
20831;DHT22;10576;53.556;9.868;2022-12-24T21:03:18;7.70;99.90
20831;DHT22;10576;53.556;9.868;2022-12-24T21:05:44;7.40;99.90
20831;DHT22;10576;53.556;9.868;2022-12-24T21:08:11;7.50;99.90
20831;DHT22;10576;53.556;9.868;2022-12-24T21:10:37;7.50;99.90
20831;DHT22;10576;53.556;9.868;2022-12-24T21:13:03;7.30;99.90
20831;DHT22;10576;53.556;9.868;2022-12-24T21:15:35;7.10;99.90
20831;DHT22;10576;53.556;9.868;2022-12-24T21:18:02;7.10;99.90
20831;DHT22;10576;53.556;9.868;2022-12-24T21:20:34;7.00;99.90
20831;DHT22;10576;53.556;9.868;2022-12-24T21:23:00;7.00;99.90
20831;DHT22;10576;53.556;9.868;2022-12-24T21:25:26;6.90;99.90
20831;DHT22;10576;53.556;9.868;2022-12-24T21:27:53;6.90;99.90
20831;DHT22;10576;53.556;9.868;2022-12-24T21:30:20;7.10;99.90
20831;DHT22;10576;53.556;9.868;2022-12-24T21:32:46;7.20;99.90
20831;DHT22;10576;53.556;9.868;2022-12-24T21:35:13;7.00;99.90
20831;DHT22;10576;53.556;9.868;2022-12-24T21:37:39;6.80;99.90
20831;DHT22;10576;53.556;9.868;2022-12-24T21:40:05;7.10;99.90
20831;DHT22;10576;53.556;9.868;2022-12-24T21:42:31;6.90;99.90
20831;DHT22;10576;53.556;9.868;2022-12-24T21:44:57;7.00;99.90
20831;DHT22;10576;53.556;9.868;2022-12-24T21:47:23;7.10;99.90
20831;DHT22;10576;53.556;9.868;2022-12-24T21:49:49;7.00;99.90
20831;DHT22;10576;53.556;9.868;2022-12-24T21:52:33;6.90;99.90
20831;DHT22;10576;53.556;9.868;2022-12-24T21:54:58;6.90;99.90
20831;DHT22;10576;53.556;9.868;2022-12-24T21:57:24;6.90;99.90
20831;DHT22;10576;53.556;9.868;2022-12-24T22:00:08;6.90;99.90
20831;DHT22;10576;53.556;9.868;2022-12-24T22:02:51;6.70;99.90
20831;DHT22;10576;53.556;9.868;2022-12-24T22:05:18;6.80;99.90
20831;DHT22;10576;53.556;9.868;2022-12-24T22:07:44;6.70;99.90
20831;DHT22;10576;53.556;9.868;2022-12-24T22:10:29;6.70;99.90
20831;DHT22;10576;53.556;9.868;2022-12-24T22:13:13;6.70;99.90
20831;DHT22;10576;53.556;9.868;2022-12-24T22:15:48;6.40;99.90
20831;DHT22;10576;53.556;9.868;2022-12-24T22:18:15;6.60;99.90
20831;DHT22;10576;53.556;9.868;2022-12-24T22:20:42;6.50;99.90
20831;DHT22;10576;53.556;9.868;2022-12-24T22:23:09;6.80;99.90
20831;DHT22;10576;53.556;9.868;2022-12-24T22:25:35;6.50;99.90
20831;DHT22;10576;53.556;9.868;2022-12-24T22:28:01;6.40;99.90
20831;DHT22;10576;53.556;9.868;2022-12-24T22:30:26;6.60;99.90
20831;DHT22;10576;53.556;9.868;2022-12-24T22:32:52;6.40;99.90
20831;DHT22;10576;53.556;9.868;2022-12-24T22:35:18;6.30;99.90
20831;DHT22;10576;53.556;9.868;2022-12-24T22:37:44;6.30;99.90